Time,TemperatureF,DewpointF,PressureIn,WindDirection,WindDirectionDegrees,WindSpeedMPH,WindSpeedGustMPH,Humidity,HourlyPrecipIn,Conditions,Clouds,dailyrainin,SoftwareType,DateUTC
2014-01-08 00:00:00,25.9,17.8,30.24,North,32767,2.0,2.0,71,0.00,,,0.00,Wunderground v.1.15,2014-01-08 06:00:00,
2014-01-08 00:10:00,25.7,17.6,30.24,North,32767,3.0,3.0,71,0.00,,,0.00,Wunderground v.1.15,2014-01-08 06:10:00,
2014-01-08 00:20:00,25.5,17.4,30.24,North,32767,3.0,6.0,71,0.00,,,0.00,Wunderground v.1.15,2014-01-08 06:20:00,
2014-01-08 00:30:00,25.2,17.1,30.24,North,32767,3.0,3.0,71,0.00,,,0.00,Wunderground v.1.15,2014-01-08 06:30:00,
2014-01-08 00:40:00,25.0,16.9,30.23,North,32767,2.0,6.0,71,0.00,,,0.00,Wunderground v.1.15,2014-01-08 06:40:00,
2014-01-08 00:50:00,24.8,17.1,30.23,North,32767,2.0,6.0,72,0.00,,,0.00,Wunderground v.1.15,2014-01-08 06:50:00,
2014-01-08 01:00:00,24.6,17.2,30.22,North,32767,3.0,6.0,73,0.00,,,0.00,Wunderground v.1.15,2014-01-08 07:00:00,
2014-01-08 01:10:00,24.5,17.1,30.23,North,32767,3.0,6.0,73,0.00,,,0.00,Wunderground v.1.15,2014-01-08 07:10:00,
2014-01-08 01:20:00,24.3,17.2,30.23,North,32767,2.0,2.0,74,0.00,,,0.00,Wunderground v.1.15,2014-01-08 07:20:00,
2014-01-08 01:30:00,24.1,17.0,30.23,North,32767,3.0,6.0,74,0.00,,,0.00,Wunderground v.1.15,2014-01-08 07:30:00,
2014-01-08 01:40:00,24.0,16.9,30.23,North,32767,2.0,6.0,74,0.00,,,0.00,Wunderground v.1.15,2014-01-08 07:40:00,
2014-01-08 01:50:00,23.8,17.0,30.23,North,32767,2.0,6.0,75,0.00,,,0.00,Wunderground v.1.15,2014-01-08 07:50:00,
2014-01-08 02:00:00,23.7,16.9,30.23,North,32767,2.0,2.0,75,0.00,,,0.00,Wunderground v.1.15,2014-01-08 08:00:00,
2014-01-08 02:10:00,23.6,17.1,30.23,North,32767,2.0,2.0,76,0.00,,,0.00,Wunderground v.1.15,2014-01-08 08:10:00,
2014-01-08 02:20:00,23.5,17.0,30.23,North,32767,2.0,6.0,76,0.00,,,0.00,Wunderground v.1.15,2014-01-08 08:20:00,
2014-01-08 02:30:00,23.4,16.9,30.23,North,32767,2.0,6.0,76,0.00,,,0.00,Wunderground v.1.15,2014-01-08 08:30:00,
2014-01-08 02:40:00,23.3,17.2,30.24,North,32767,1.0,6.0,77,0.00,,,0.00,Wunderground v.1.15,2014-01-08 08:40:00,
2014-01-08 02:50:00,23.2,17.1,30.23,North,32767,3.0,6.0,77,0.00,,,0.00,Wunderground v.1.15,2014-01-08 08:50:00,
2014-01-08 03:00:00,23.1,17.3,30.24,North,32767,3.0,5.0,78,0.00,,,0.00,Wunderground v.1.15,2014-01-08 09:00:00,
2014-01-08 03:10:00,23.0,17.5,30.24,North,32767,3.0,5.0,79,0.00,,,0.00,Wunderground v.1.15,2014-01-08 09:10:00,
2014-01-08 03:20:00,22.9,17.7,30.24,North,32767,3.0,5.0,80,0.00,,,0.00,Wunderground v.1.15,2014-01-08 09:20:00,
2014-01-08 03:30:00,22.8,17.8,30.24,North,32767,3.0,4.0,81,0.00,,,0.00,Wunderground v.1.15,2014-01-08 09:30:00,
2014-01-08 03:40:00,22.7,17.7,30.24,North,32767,3.0,3.0,81,0.00,,,0.00,Wunderground v.1.15,2014-01-08 09:40:00,
2014-01-08 03:50:00,22.5,17.8,30.24,North,32767,3.0,5.0,82,0.00,,,0.00,Wunderground v.1.15,2014-01-08 09:50:00,
2014-01-08 04:00:00,22.3,17.9,30.24,North,32767,3.0,5.0,83,0.00,,,0.00,Wunderground v.1.15,2014-01-08 10:00:00,
2014-01-08 04:10:00,22.2,17.8,30.23,North,32767,4.0,4.0,83,0.00,,,0.00,Wunderground v.1.15,2014-01-08 10:10:00,
2014-01-08 04:20:00,22.1,17.7,30.23,North,32767,3.0,3.0,83,0.00,,,0.00,Wunderground v.1.15,2014-01-08 10:20:00,
2014-01-08 04:30:00,22.1,18.0,30.23,North,32767,3.0,5.0,84,0.00,,,0.00,Wunderground v.1.15,2014-01-08 10:30:00,
2014-01-08 04:40:00,22.1,18.0,30.23,North,32767,2.0,2.0,84,0.00,,,0.00,Wunderground v.1.15,2014-01-08 10:40:00,
2014-01-08 04:50:00,22.0,18.2,30.23,North,32767,2.0,5.0,85,0.00,,,0.00,Wunderground v.1.15,2014-01-08 10:50:00,
2014-01-08 05:00:00,21.8,18.0,30.23,North,32767,3.0,3.0,85,0.00,,,0.00,Wunderground v.1.15,2014-01-08 11:00:00,
2014-01-08 05:10:00,21.7,18.2,30.23,North,32767,3.0,5.0,86,0.00,,,0.00,Wunderground v.1.15,2014-01-08 11:10:00,
2014-01-08 05:20:00,21.6,18.1,30.23,North,32767,3.0,3.0,86,0.00,,,0.00,Wunderground v.1.15,2014-01-08 11:20:00,
2014-01-08 05:30:00,21.5,18.0,30.24,North,32767,1.0,5.0,86,0.00,,,0.00,Wunderground v.1.15,2014-01-08 11:30:00,
2014-01-08 05:40:00,21.5,18.0,30.23,North,32767,0.0,5.0,86,0.00,,,0.00,Wunderground v.1.15,2014-01-08 11:40:00,
2014-01-08 05:50:00,21.5,18.0,30.24,North,32767,1.0,5.0,86,0.00,,,0.00,Wunderground v.1.15,2014-01-08 11:50:00,
2014-01-08 06:00:00,21.5,18.2,30.24,North,32767,2.0,5.0,87,0.00,,,0.00,Wunderground v.1.15,2014-01-08 12:00:00,
2014-01-08 06:10:00,21.4,18.1,30.24,North,32767,2.0,5.0,87,0.00,,,0.00,Wunderground v.1.15,2014-01-08 12:10:00,
2014-01-08 06:20:00,21.3,18.0,30.24,North,32767,3.0,3.0,87,0.00,,,0.00,Wunderground v.1.15,2014-01-08 12:20:00,
2014-01-08 06:30:00,21.3,18.3,30.24,North,32767,3.0,5.0,88,0.00,,,0.00,Wunderground v.1.15,2014-01-08 12:30:00,
2014-01-08 06:40:00,21.3,18.3,30.24,North,32767,2.0,2.0,88,0.00,,,0.00,Wunderground v.1.15,2014-01-08 12:40:00,
2014-01-08 06:50:00,21.3,18.3,30.24,North,32767,1.0,1.0,88,0.00,,,0.00,Wunderground v.1.15,2014-01-08 12:50:00,
2014-01-08 07:00:00,21.2,18.2,30.25,North,32767,0.0,5.0,88,0.00,,,0.00,Wunderground v.1.15,2014-01-08 13:00:00,
2014-01-08 07:10:00,21.3,18.3,30.26,North,32767,1.0,5.0,88,0.00,,,0.00,Wunderground v.1.15,2014-01-08 13:10:00,
2014-01-08 07:20:00,21.1,18.1,30.26,North,32767,2.0,2.0,88,0.00,,,0.00,Wunderground v.1.15,2014-01-08 13:20:00,
2014-01-08 07:30:00,20.8,17.8,30.27,North,32767,2.0,5.0,88,0.00,,,0.00,Wunderground v.1.15,2014-01-08 13:30:00,
2014-01-08 07:40:00,20.3,17.3,30.27,North,32767,2.0,2.0,88,0.00,,,0.00,Wunderground v.1.15,2014-01-08 13:40:00,
2014-01-08 07:50:00,20.1,17.4,30.27,North,32767,2.0,2.0,89,0.00,,,0.00,Wunderground v.1.15,2014-01-08 13:50:00,
2014-01-08 08:00:00,19.9,17.2,30.27,North,32767,2.0,5.0,89,0.00,,,0.00,Wunderground v.1.15,2014-01-08 14:00:00,
2014-01-08 08:10:00,19.6,16.9,30.28,North,32767,2.0,2.0,89,0.00,,,0.00,Wunderground v.1.15,2014-01-08 14:10:00,
2014-01-08 08:20:00,19.3,16.6,30.28,North,32767,2.0,5.0,89,0.00,,,0.00,Wunderground v.1.15,2014-01-08 14:20:00,
2014-01-08 08:30:00,19.2,16.5,30.29,North,32767,2.0,2.0,89,0.00,,,0.00,Wunderground v.1.15,2014-01-08 14:30:00,
2014-01-08 08:50:00,19.1,16.4,30.31,North,32767,2.0,5.0,89,0.00,,,0.00,Wunderground v.1.15,2014-01-08 14:50:00,
2014-01-08 09:00:00,19.2,16.5,30.32,North,32767,2.0,5.0,89,0.00,,,0.00,Wunderground v.1.15,2014-01-08 15:00:00,
2014-01-08 09:10:00,19.2,16.5,30.32,North,32767,2.0,5.0,89,0.00,,,0.00,Wunderground v.1.15,2014-01-08 15:10:00,
2014-01-08 09:20:00,19.2,16.5,30.33,North,32767,2.0,5.0,89,0.00,,,0.00,Wunderground v.1.15,2014-01-08 15:20:00,
2014-01-08 09:30:00,19.1,16.1,30.33,North,32767,3.0,5.0,88,0.00,,,0.00,Wunderground v.1.15,2014-01-08 15:30:00,
2014-01-08 09:40:00,19.0,16.0,30.34,North,32767,3.0,3.0,88,0.00,,,0.00,Wunderground v.1.15,2014-01-08 15:40:00,
2014-01-08 09:50:00,19.3,16.3,30.34,North,32767,2.0,5.0,88,0.00,,,0.00,Wunderground v.1.15,2014-01-08 15:50:00,
2014-01-08 10:00:00,19.3,16.1,30.35,North,32767,5.0,5.0,87,0.00,,,0.00,Wunderground v.1.15,2014-01-08 16:00:00,
2014-01-08 10:10:00,19.4,16.4,30.35,North,32767,3.0,5.0,88,0.00,,,0.00,Wunderground v.1.15,2014-01-08 16:10:00,
2014-01-08 10:20:00,19.6,16.4,30.35,North,32767,4.0,4.0,87,0.00,,,0.00,Wunderground v.1.15,2014-01-08 16:20:00,
2014-01-08 10:30:00,19.8,16.3,30.36,North,32767,4.0,4.0,86,0.00,,,0.00,Wunderground v.1.15,2014-01-08 16:30:00,
2014-01-08 10:40:00,19.9,16.1,30.36,North,32767,6.0,6.0,85,0.00,,,0.00,Wunderground v.1.15,2014-01-08 16:40:00,
2014-01-08 10:50:00,20.1,16.3,30.36,North,32767,5.0,8.0,85,0.00,,,0.00,Wunderground v.1.15,2014-01-08 16:50:00,
2014-01-08 11:00:00,20.2,16.4,30.36,North,32767,5.0,5.0,85,0.00,,,0.00,Wunderground v.1.15,2014-01-08 17:00:00,
2014-01-08 11:20:00,21.1,17.0,30.36,North,32767,3.0,6.0,84,0.00,,,0.00,Wunderground v.1.15,2014-01-08 17:20:00,
2014-01-08 11:30:00,21.3,17.2,30.36,North,32767,5.0,5.0,84,0.00,,,0.00,Wunderground v.1.15,2014-01-08 17:30:00,
2014-01-08 11:40:00,21.9,17.5,30.36,North,32767,5.0,6.0,83,0.00,,,0.00,Wunderground v.1.15,2014-01-08 17:40:00,
2014-01-08 11:50:00,22.1,17.4,30.35,North,32767,5.0,5.0,82,0.00,,,0.00,Wunderground v.1.15,2014-01-08 17:50:00,
2014-01-08 12:00:00,22.3,17.4,30.35,North,32767,5.0,6.0,81,0.00,,,0.00,Wunderground v.1.15,2014-01-08 18:00:00,
2014-01-08 12:10:00,22.6,17.9,30.34,North,32767,5.0,5.0,82,0.00,,,0.00,Wunderground v.1.15,2014-01-08 18:10:00,
2014-01-08 12:20:00,22.8,17.8,30.34,North,32767,5.0,5.0,81,0.00,,,0.00,Wunderground v.1.15,2014-01-08 18:20:00,
2014-01-08 12:30:00,22.8,17.8,30.34,North,32767,6.0,6.0,81,0.00,,,0.00,Wunderground v.1.15,2014-01-08 18:30:00,
2014-01-08 12:40:00,22.7,17.7,30.33,North,32767,6.0,9.0,81,0.00,,,0.00,Wunderground v.1.15,2014-01-08 18:40:00,
2014-01-08 12:50:00,22.7,17.7,30.33,North,32767,6.0,7.0,81,0.00,,,0.00,Wunderground v.1.15,2014-01-08 18:50:00,
2014-01-08 13:00:00,22.8,17.8,30.32,North,32767,6.0,6.0,81,0.00,,,0.00,Wunderground v.1.15,2014-01-08 19:00:00,
2014-01-08 13:10:00,23.1,18.4,30.32,North,32767,5.0,7.0,82,0.00,,,0.00,Wunderground v.1.15,2014-01-08 19:10:00,
2014-01-08 13:20:00,23.4,18.4,30.32,North,32767,6.0,6.0,81,0.00,,,0.00,Wunderground v.1.15,2014-01-08 19:20:00,
2014-01-08 13:30:00,23.9,18.6,30.31,North,32767,5.0,5.0,80,0.00,,,0.00,Wunderground v.1.15,2014-01-08 19:30:00,
2014-01-08 13:40:00,24.2,18.9,30.31,North,32767,6.0,6.0,80,0.00,,,0.00,Wunderground v.1.15,2014-01-08 19:40:00,
2014-01-08 13:50:00,24.2,18.9,30.31,North,32767,6.0,6.0,80,0.00,,,0.00,Wunderground v.1.15,2014-01-08 19:50:00,
2014-01-08 14:10:00,24.6,19.0,30.30,North,32767,6.0,6.0,79,0.00,,,0.00,Wunderground v.1.15,2014-01-08 20:10:00,
2014-01-08 14:20:00,25.0,19.4,30.30,North,32767,6.0,6.0,79,0.00,,,0.00,Wunderground v.1.15,2014-01-08 20:20:00,
2014-01-08 14:30:00,25.2,19.6,30.30,North,32767,6.0,6.0,79,0.00,,,0.00,Wunderground v.1.15,2014-01-08 20:30:00,
2014-01-08 14:40:00,25.0,19.4,30.30,North,32767,6.0,10.0,79,0.00,,,0.00,Wunderground v.1.15,2014-01-08 20:40:00,
2014-01-08 14:50:00,24.7,19.1,30.31,North,32767,6.0,6.0,79,0.00,,,0.00,Wunderground v.1.15,2014-01-08 20:50:00,
2014-01-08 15:00:00,25.0,19.4,30.30,North,32767,6.0,7.0,79,0.00,,,0.00,Wunderground v.1.15,2014-01-08 21:00:00,
2014-01-08 15:10:00,25.0,19.4,30.30,North,32767,6.0,6.0,79,0.00,,,0.00,Wunderground v.1.15,2014-01-08 21:10:00,
2014-01-08 15:20:00,25.2,19.3,30.30,North,32767,7.0,8.0,78,0.00,,,0.00,Wunderground v.1.15,2014-01-08 21:20:00,
2014-01-08 15:30:00,25.3,19.4,30.30,North,32767,7.0,7.0,78,0.00,,,0.00,Wunderground v.1.15,2014-01-08 21:30:00,
2014-01-08 15:40:00,25.5,19.6,30.30,North,32767,7.0,7.0,78,0.00,,,0.00,Wunderground v.1.15,2014-01-08 21:40:00,
2014-01-08 15:50:00,25.6,19.4,30.30,North,32767,8.0,9.0,77,0.00,,,0.00,Wunderground v.1.15,2014-01-08 21:50:00,
2014-01-08 16:00:00,25.9,19.7,30.30,North,32767,8.0,11.0,77,0.00,,,0.00,Wunderground v.1.15,2014-01-08 22:00:00,
2014-01-08 16:10:00,26.2,20.0,30.31,North,32767,8.0,8.0,77,0.00,,,0.00,Wunderground v.1.15,2014-01-08 22:10:00,
2014-01-08 16:20:00,26.1,19.9,30.31,North,32767,7.0,8.0,77,0.00,,,0.00,Wunderground v.1.15,2014-01-08 22:20:00,
2014-01-08 16:30:00,25.4,19.5,30.31,North,32767,8.0,9.0,78,0.00,,,0.00,Wunderground v.1.15,2014-01-08 22:30:00,
2014-01-08 16:40:00,25.2,19.3,30.31,North,32767,6.0,8.0,78,0.00,,,0.00,Wunderground v.1.15,2014-01-08 22:40:00,
2014-01-08 16:50:00,24.7,19.1,30.31,North,32767,8.0,9.0,79,0.00,,,0.00,Wunderground v.1.15,2014-01-08 22:50:00,
2014-01-08 17:00:00,24.5,18.9,30.31,North,32767,7.0,7.0,79,0.00,,,0.00,Wunderground v.1.15,2014-01-08 23:00:00,
2014-01-08 17:10:00,24.2,18.9,30.31,North,32767,7.0,7.0,80,0.00,,,0.00,Wunderground v.1.15,2014-01-08 23:10:00,
2014-01-08 17:20:00,23.4,18.1,30.31,North,32767,6.0,6.0,80,0.00,,,0.00,Wunderground v.1.15,2014-01-08 23:20:00,
2014-01-08 17:30:00,22.4,17.5,30.31,North,32767,6.0,6.0,81,0.00,,,0.00,Wunderground v.1.15,2014-01-08 23:30:00,
2014-01-08 17:40:00,21.4,16.8,30.31,North,32767,5.0,5.0,82,0.00,,,0.00,Wunderground v.1.15,2014-01-08 23:40:00,
2014-01-08 17:50:00,20.7,16.6,30.32,North,32767,5.0,5.0,84,0.00,,,0.00,Wunderground v.1.15,2014-01-08 23:50:00,
2014-01-08 18:00:00,20.3,16.5,30.32,North,32767,4.0,4.0,85,0.00,,,0.00,Wunderground v.1.15,2014-01-09 00:00:00,
2014-01-08 18:10:00,20.1,16.3,30.32,North,32767,3.0,3.0,85,0.00,,,0.00,Wunderground v.1.15,2014-01-09 00:10:00,
2014-01-08 18:20:00,20.2,16.7,30.32,North,32767,5.0,6.0,86,0.00,,,0.00,Wunderground v.1.15,2014-01-09 00:20:00,
2014-01-08 18:30:00,21.0,17.7,30.32,North,32767,7.0,8.0,87,0.00,,,0.00,Wunderground v.1.15,2014-01-09 00:30:00,
2014-01-08 18:40:00,21.6,18.1,30.32,North,32767,8.0,8.0,86,0.00,,,0.00,Wunderground v.1.15,2014-01-09 00:40:00,
2014-01-08 18:50:00,22.0,18.2,30.32,North,32767,8.0,9.0,85,0.00,,,0.00,Wunderground v.1.15,2014-01-09 00:50:00,
2014-01-08 19:00:00,22.2,18.4,30.32,North,32767,8.0,8.0,85,0.00,,,0.00,Wunderground v.1.15,2014-01-09 01:00:00,
2014-01-08 19:10:00,22.3,18.5,30.33,North,32767,9.0,13.0,85,0.00,,,0.00,Wunderground v.1.15,2014-01-09 01:10:00,
2014-01-08 19:20:00,22.3,18.5,30.33,North,32767,9.0,9.0,85,0.00,,,0.00,Wunderground v.1.15,2014-01-09 01:20:00,
2014-01-08 19:30:00,22.3,18.5,30.33,North,32767,9.0,9.0,85,0.00,,,0.00,Wunderground v.1.15,2014-01-09 01:30:00,
2014-01-08 19:40:00,22.2,18.4,30.34,North,32767,7.0,8.0,85,0.00,,,0.00,Wunderground v.1.15,2014-01-09 01:40:00,
2014-01-08 19:50:00,22.1,18.6,30.34,North,32767,7.0,8.0,86,0.00,,,0.00,Wunderground v.1.15,2014-01-09 01:50:00,
2014-01-08 20:00:00,21.8,18.3,30.34,North,32767,6.0,6.0,86,0.00,,,0.00,Wunderground v.1.15,2014-01-09 02:00:00,
2014-01-08 20:10:00,21.5,18.0,30.34,North,32767,6.0,8.0,86,0.00,,,0.00,Wunderground v.1.15,2014-01-09 02:10:00,
2014-01-08 20:20:00,21.2,17.9,30.34,North,32767,5.0,5.0,87,0.00,,,0.00,Wunderground v.1.15,2014-01-09 02:20:00,
2014-01-08 20:30:00,21.0,17.7,30.34,North,32767,5.0,5.0,87,0.00,,,0.00,Wunderground v.1.15,2014-01-09 02:30:00,
2014-01-08 20:40:00,20.9,17.6,30.34,North,32767,6.0,6.0,87,0.00,,,0.00,Wunderground v.1.15,2014-01-09 02:40:00,
2014-01-08 20:50:00,20.7,17.7,30.34,North,32767,6.0,7.0,88,0.00,,,0.00,Wunderground v.1.15,2014-01-09 02:50:00,
2014-01-08 21:00:00,20.5,17.8,30.34,North,32767,7.0,7.0,89,0.00,,,0.00,Wunderground v.1.15,2014-01-09 03:00:00,
2014-01-08 21:10:00,20.4,17.9,30.34,North,32767,8.0,8.0,90,0.00,,,0.00,Wunderground v.1.15,2014-01-09 03:10:00,
2014-01-08 21:20:00,20.2,18.0,30.34,North,32767,7.0,10.0,91,0.00,,,0.00,Wunderground v.1.15,2014-01-09 03:20:00,
2014-01-08 21:30:00,20.0,17.8,30.34,North,32767,8.0,9.0,91,0.00,,,0.00,Wunderground v.1.15,2014-01-09 03:30:00,
2014-01-08 21:40:00,19.8,17.6,30.34,North,32767,8.0,10.0,91,0.00,,,0.00,Wunderground v.1.15,2014-01-09 03:40:00,
2014-01-08 21:50:00,19.4,17.2,30.34,North,32767,8.0,8.0,91,0.00,,,0.00,Wunderground v.1.15,2014-01-09 03:50:00,
2014-01-08 22:00:00,19.2,17.3,30.34,North,32767,8.0,10.0,92,0.00,,,0.00,Wunderground v.1.15,2014-01-09 04:00:00,
2014-01-08 22:10:00,19.0,17.1,30.34,North,32767,8.0,9.0,92,0.00,,,0.00,Wunderground v.1.15,2014-01-09 04:10:00,
2014-01-08 22:20:00,18.8,16.9,30.34,North,32767,8.0,10.0,92,0.00,,,0.00,Wunderground v.1.15,2014-01-09 04:20:00,
2014-01-08 22:30:00,18.7,16.8,30.34,North,32767,8.0,9.0,92,0.00,,,0.00,Wunderground v.1.15,2014-01-09 04:30:00,
2014-01-08 22:40:00,18.5,16.3,30.34,North,32767,8.0,9.0,91,0.00,,,0.00,Wunderground v.1.15,2014-01-09 04:40:00,
2014-01-08 22:50:00,18.1,15.9,30.34,North,32767,8.0,8.0,91,0.00,,,0.00,Wunderground v.1.15,2014-01-09 04:50:00,
2014-01-08 23:00:00,18.0,15.8,30.33,North,32767,6.0,7.0,91,0.00,,,0.00,Wunderground v.1.15,2014-01-09 05:00:00,
2014-01-08 23:10:00,17.9,15.7,30.33,North,32767,7.0,7.0,91,0.00,,,0.00,Wunderground v.1.15,2014-01-09 05:10:00,
2014-01-08 23:20:00,17.9,15.7,30.33,North,32767,7.0,7.0,91,0.00,,,0.00,Wunderground v.1.15,2014-01-09 05:20:00,
2014-01-08 23:30:00,17.9,15.7,30.33,North,32767,7.0,7.0,91,0.00,,,0.00,Wunderground v.1.15,2014-01-09 05:30:00,
2014-01-08 23:40:00,17.8,15.6,30.33,North,32767,8.0,11.0,91,0.00,,,0.00,Wunderground v.1.15,2014-01-09 05:40:00,
2014-01-08 23:50:00,17.8,15.6,30.33,North,32767,8.0,8.0,91,0.00,,,0.00,Wunderground v.1.15,2014-01-09 05:50:00,